Time;durP1;ratioP1;P1;durP2;ratioP2;P2;SDS_P1;SDS_P2;PMS_P1;PMS_P2;Temp;Humidity;BMP_temperature;BMP_pressure;BME280_temperature;BME280_humidity;BME280_pressure;Samples;Min_cycle;Max_cycle;Signal;HPM_P1;HPM_P2
2022/04/18 00:01:57;;;;;;;4.18;1.80;;;13.00;88.20;;;;;;5055639;28;20394;-88
2022/04/18 00:04:23;;;;;;;3.92;1.75;;;13.00;88.30;;;;;;5055157;28;20075;-88
2022/04/18 00:06:48;;;;;;;3.83;1.75;;;12.90;88.20;;;;;;5037576;28;20028;-88
2022/04/18 00:09:15;;;;;;;7.18;1.88;;;12.90;88.20;;;;;;5037423;28;20480;-88
2022/04/18 00:11:40;;;;;;;4.28;1.90;;;12.90;88.30;;;;;;5054564;28;20028;-88
2022/04/18 00:14:06;;;;;;;3.83;1.95;;;12.90;88.20;;;;;;5036659;28;20025;-88
2022/04/18 00:16:32;;;;;;;3.67;1.75;;;12.90;88.20;;;;;;5036514;28;20021;-88
2022/04/18 00:18:58;;;;;;;2.60;1.70;;;12.90;88.30;;;;;;5054374;28;20040;-88
2022/04/18 00:21:23;;;;;;;3.13;1.90;;;12.90;88.30;;;;;;5036345;28;20078;-88
2022/04/18 00:23:49;;;;;;;3.63;1.90;;;12.90;88.30;;;;;;5036365;28;20036;-88
2022/04/18 00:26:15;;;;;;;3.17;1.75;;;12.80;88.30;;;;;;5054279;28;20104;-88
2022/04/18 00:28:41;;;;;;;4.03;1.70;;;12.80;88.20;;;;;;5036545;28;20029;-88
2022/04/18 00:31:07;;;;;;;3.60;1.90;;;12.80;88.20;;;;;;5036932;28;20028;-88
2022/04/18 00:33:33;;;;;;;3.30;1.80;;;12.80;88.20;;;;;;5036389;28;20112;-88
2022/04/18 00:35:59;;;;;;;4.15;2.00;;;12.80;88.30;;;;;;5036207;28;20029;-88
2022/04/18 00:38:25;;;;;;;3.08;1.60;;;12.80;88.20;;;;;;5036180;28;20480;-88
2022/04/18 00:40:51;;;;;;;3.20;1.73;;;12.80;88.20;;;;;;5036072;28;20021;-87
2022/04/18 00:43:16;;;;;;;3.45;1.45;;;12.70;88.20;;;;;;5036093;28;20487;-88
2022/04/18 00:45:42;;;;;;;1.88;1.42;;;12.80;88.30;;;;;;5036248;28;20171;-88
2022/04/18 00:48:08;;;;;;;3.35;1.60;;;12.70;88.10;;;;;;5035885;28;20070;-87
2022/04/18 00:50:35;;;;;;;3.53;1.60;;;12.70;88.30;;;;;;5053813;28;20033;-88
2022/04/18 00:53:02;;;;;;;3.47;1.85;;;12.70;88.40;;;;;;5035968;28;20059;-87
2022/04/18 00:55:28;;;;;;;3.17;1.83;;;12.70;88.30;;;;;;5035723;28;20433;-88
2022/04/18 00:57:55;;;;;;;3.70;2.10;;;12.70;88.50;;;;;;5035782;28;20055;-87
2022/04/18 01:00:22;;;;;;;5.45;2.10;;;12.70;88.30;;;;;;5035654;28;20025;-87
2022/04/18 01:02:48;;;;;;;3.88;1.98;;;12.60;88.30;;;;;;5053513;28;20393;-88
2022/04/18 01:05:14;;;;;;;4.20;2.42;;;12.70;88.40;;;;;;5035887;28;20050;-87
2022/04/18 01:07:40;;;;;;;2.85;1.73;;;12.60;88.30;;;;;;5035573;28;20036;-87
2022/04/18 01:10:07;;;;;;;3.75;2.00;;;12.60;88.30;;;;;;5035898;28;20032;-87
2022/04/18 01:12:34;;;;;;;2.75;1.90;;;12.60;88.30;;;;;;5035755;28;20055;-87
2022/04/18 01:15:00;;;;;;;3.85;1.92;;;12.60;88.30;;;;;;5053731;28;20126;-88
2022/04/18 01:17:26;;;;;;;4.70;1.90;;;12.60;88.40;;;;;;5053183;28;20425;-88
2022/04/18 01:19:52;;;;;;;5.40;2.00;;;12.60;88.30;;;;;;5035711;28;20064;-88
2022/04/18 01:22:19;;;;;;;2.78;1.80;;;12.50;88.30;;;;;;5053127;28;20049;-88
2022/04/18 01:30:13;;;;;;;4.45;2.10;;;12.50;88.40;;;;;;5054560;28;20062;-87
2022/04/18 01:32:39;;;;;;;4.18;2.00;;;12.50;88.40;;;;;;5035878;28;20052;-87
2022/04/18 01:35:05;;;;;;;3.67;1.90;;;12.50;88.40;;;;;;5035974;28;20112;-87
2022/04/18 01:37:31;;;;;;;4.50;1.70;;;12.40;88.40;;;;;;5035852;28;20471;-88
2022/04/18 01:39:57;;;;;;;3.90;1.70;;;12.40;88.50;;;;;;5035696;28;20025;-87
2022/04/18 01:42:22;;;;;;;2.85;1.83;;;12.40;88.30;;;;;;5035791;28;20017;-88
2022/04/18 01:44:48;;;;;;;2.85;1.73;;;12.40;88.40;;;;;;5035088;28;20043;-88
2022/04/18 01:47:14;;;;;;;3.10;1.90;;;12.40;88.30;;;;;;5053772;28;20018;-87
2022/04/18 01:49:40;;;;;;;6.43;1.83;;;12.40;88.30;;;;;;5035781;28;20029;-87
2022/04/18 01:52:06;;;;;;;3.38;1.63;;;12.40;88.40;;;;;;5035653;28;20098;-88
2022/04/18 01:54:32;;;;;;;3.50;1.70;;;12.40;88.50;;;;;;5053426;28;20021;-87
2022/04/18 01:56:57;;;;;;;3.25;1.83;;;12.30;88.30;;;;;;5035707;28;20029;-87
2022/04/18 01:59:23;;;;;;;4.15;1.58;;;12.30;88.40;;;;;;5035652;28;20036;-87
2022/04/18 02:01:49;;;;;;;2.75;1.70;;;12.30;88.30;;;;;;5053316;28;20032;-87
2022/04/18 02:04:15;;;;;;;2.72;2.00;;;12.30;88.30;;;;;;5034997;28;20033;-87
2022/04/18 02:06:41;;;;;;;3.40;1.52;;;12.30;88.30;;;;;;5034837;28;20029;-87
2022/04/18 02:09:07;;;;;;;3.13;1.77;;;12.30;88.30;;;;;;5034962;28;20025;-87
2022/04/18 02:11:32;;;;;;;6.00;2.05;;;12.30;88.40;;;;;;5035108;28;20158;-87
2022/04/18 02:13:58;;;;;;;3.40;1.90;;;12.30;88.40;;;;;;5034979;28;20115;-88
2022/04/18 02:16:24;;;;;;;2.17;1.33;;;12.30;88.40;;;;;;5035028;28;20426;-87
2022/04/18 02:18:50;;;;;;;2.50;1.55;;;12.20;88.50;;;;;;5034833;28;20029;-87
2022/04/18 02:21:17;;;;;;;4.00;2.15;;;12.20;88.40;;;;;;5035255;28;20511;-87
2022/04/18 02:23:43;;;;;;;2.58;1.55;;;12.20;88.40;;;;;;5034757;28;20071;-87
2022/04/18 02:26:09;;;;;;;5.32;2.00;;;12.20;88.40;;;;;;5034857;28;20057;-87
2022/04/18 02:28:35;;;;;;;3.03;1.70;;;12.20;88.40;;;;;;5036921;28;20107;-87
2022/04/18 02:31:02;;;;;;;3.13;1.65;;;12.20;88.50;;;;;;5056799;28;20024;-87
2022/04/18 02:33:28;;;;;;;2.70;1.70;;;12.20;88.60;;;;;;5038410;28;20028;-87
2022/04/18 02:35:54;;;;;;;3.17;1.40;;;12.20;88.40;;;;;;5056318;28;20029;-87
2022/04/18 02:38:19;;;;;;;2.10;1.45;;;12.20;88.50;;;;;;5038819;28;20031;-88
2022/04/18 02:40:45;;;;;;;4.97;1.92;;;12.10;88.40;;;;;;5039096;28;20081;-87
2022/04/18 02:43:12;;;;;;;3.05;1.58;;;12.10;88.40;;;;;;5039130;28;20082;-87
2022/04/18 02:45:38;;;;;;;2.85;1.63;;;12.10;88.50;;;;;;5056716;28;20043;-87
2022/04/18 02:48:04;;;;;;;3.50;1.83;;;12.10;88.50;;;;;;5039060;28;20052;-87
2022/04/18 02:50:30;;;;;;;2.88;1.50;;;12.10;88.50;;;;;;5039109;28;20128;-88
2022/04/18 02:52:56;;;;;;;4.40;1.42;;;12.10;88.50;;;;;;5038054;28;20404;-87
2022/04/18 02:55:22;;;;;;;2.92;1.70;;;12.10;88.50;;;;;;5056532;28;20028;-87
2022/04/18 02:57:48;;;;;;;3.72;1.70;;;12.10;88.50;;;;;;5038581;28;20594;-87
2022/04/18 03:00:14;;;;;;;4.05;1.70;;;12.00;88.40;;;;;;5038404;28;20057;-87
2022/04/18 03:02:40;;;;;;;2.70;1.60;;;12.00;88.40;;;;;;5038110;28;20029;-87
2022/04/18 03:05:08;;;;;;;2.95;1.70;;;12.00;89.20;;;;;;5038006;28;20029;-87
2022/04/18 03:07:34;;;;;;;2.92;1.60;;;12.00;88.40;;;;;;5037996;28;20029;-87
2022/04/18 03:10:00;;;;;;;3.17;1.60;;;12.10;88.50;;;;;;5038257;28;20032;-87
2022/04/18 03:12:26;;;;;;;3.50;1.73;;;12.00;88.40;;;;;;5038580;28;20053;-87
2022/04/18 03:14:52;;;;;;;3.05;1.70;;;12.00;88.40;;;;;;5038711;28;20025;-87
2022/04/18 03:17:18;;;;;;;3.53;1.70;;;12.00;88.40;;;;;;5038630;28;20040;-87
2022/04/18 03:19:44;;;;;;;3.15;1.50;;;12.00;88.40;;;;;;5056186;28;20468;-87
2022/04/18 03:22:10;;;;;;;2.63;1.60;;;12.00;88.40;;;;;;5025472;28;20107;-87
2022/04/18 03:24:36;;;;;;;3.03;1.70;;;12.00;88.40;;;;;;5018267;28;20029;-88
2022/04/18 03:27:04;;;;;;;2.88;1.50;;;11.90;88.40;;;;;;5017900;28;20125;-87
2022/04/18 03:29:31;;;;;;;2.13;1.40;;;11.90;88.40;;;;;;5017438;28;20448;-87
2022/04/18 03:31:58;;;;;;;1.77;1.45;;;11.90;88.40;;;;;;5018071;28;20392;-87
2022/04/18 03:34:24;;;;;;;2.58;1.60;;;11.90;88.40;;;;;;5017786;28;20032;-87
2022/04/18 03:39:50;;;;;;;3.22;1.73;;;11.90;88.40;;;;;;5035463;28;20113;-87
2022/04/18 03:42:17;;;;;;;2.63;1.50;;;11.90;88.50;;;;;;5017804;28;20025;-87
2022/04/18 03:44:45;;;;;;;3.22;1.67;;;11.90;88.50;;;;;;5035090;28;20032;-87
2022/04/18 03:47:15;;;;;;;2.65;1.40;;;11.80;88.40;;;;;;5017349;28;20477;-87
2022/04/18 03:49:42;;;;;;;2.20;1.70;;;11.80;88.40;;;;;;5017261;28;20124;-87
2022/04/18 03:52:08;;;;;;;3.13;1.48;;;11.80;88.40;;;;;;5035521;28;20103;-87
2022/04/18 03:54:35;;;;;;;2.78;1.63;;;11.90;88.50;;;;;;5018050;28;20056;-87
2022/04/18 03:57:02;;;;;;;2.92;1.65;;;11.80;88.40;;;;;;5018126;28;20032;-87
2022/04/18 03:59:28;;;;;;;3.42;1.80;;;11.80;88.50;;;;;;5035734;28;20025;-87
2022/04/18 04:01:54;;;;;;;2.88;2.08;;;11.80;88.50;;;;;;5018002;28;20029;-87
2022/04/18 04:04:19;;;;;;;5.20;1.80;;;11.80;88.80;;;;;;5017747;28;20025;-87
2022/04/18 04:06:45;;;;;;;3.20;1.65;;;11.80;88.60;;;;;;5017688;28;20025;-87
2022/04/18 04:09:11;;;;;;;3.28;1.70;;;11.80;88.60;;;;;;5035247;28;20029;-86
2022/04/18 04:11:37;;;;;;;3.78;1.58;;;11.80;88.60;;;;;;5017280;28;20583;-87
2022/04/18 04:14:03;;;;;;;4.00;1.50;;;11.70;88.60;;;;;;5017197;28;20116;-87
2022/04/18 04:16:29;;;;;;;3.20;1.70;;;11.70;88.60;;;;;;5017479;28;20477;-87
2022/04/18 04:18:54;;;;;;;1.73;1.27;;;11.70;88.60;;;;;;5034889;28;20049;-87
2022/04/18 04:21:20;;;;;;;3.83;1.67;;;11.70;88.60;;;;;;5040738;28;20539;-87
2022/04/18 04:23:46;;;;;;;3.97;1.50;;;11.70;88.60;;;;;;5037068;28;20442;-89
2022/04/18 04:26:12;;;;;;;3.20;1.70;;;11.70;88.60;;;;;;5036852;28;20033;-88
2022/04/18 04:28:37;;;;;;;3.05;1.63;;;11.70;88.70;;;;;;5037084;28;20560;-88
2022/04/18 04:31:03;;;;;;;2.47;1.48;;;11.70;88.60;;;;;;5054718;28;20377;-88
2022/04/18 04:33:30;;;;;;;4.05;1.73;;;11.60;88.60;;;;;;5036599;28;20094;-88
2022/04/18 04:36:00;;;;;;;3.42;1.80;;;11.60;88.60;;;;;;5054536;28;20017;-88
2022/04/18 04:38:27;;;;;;;2.63;1.60;;;11.60;88.70;;;;;;5036551;28;20029;-88
2022/04/18 04:40:53;;;;;;;5.43;1.70;;;11.60;88.70;;;;;;5036406;28;20025;-88
2022/04/18 04:43:27;;;;;;;4.65;1.58;;;11.60;88.70;;;;;;5036269;28;20492;-88
2022/04/18 04:45:57;;;;;;;;;;;11.60;88.70;;;;;;5036479;28;20089;-88
2022/04/18 04:48:23;;;;;;;3.30;1.75;;;11.60;88.70;;;;;;5036322;28;19920;-88
2022/04/18 04:50:49;;;;;;;2.28;1.50;;;11.60;88.70;;;;;;5035594;28;20054;-88
2022/04/18 04:53:15;;;;;;;2.35;1.67;;;11.60;88.70;;;;;;5035872;28;20029;-88
2022/04/18 04:55:41;;;;;;;5.25;2.25;;;11.50;88.60;;;;;;5054049;28;20024;-88
2022/04/18 04:58:09;;;;;;;2.83;1.70;;;11.50;88.70;;;;;;5036179;28;20057;-88
2022/04/18 05:00:35;;;;;;;2.58;1.60;;;11.50;88.70;;;;;;5054135;28;20021;-88
2022/04/18 05:03:01;;;;;;;2.47;1.38;;;11.50;88.70;;;;;;5036139;28;20108;-88
2022/04/18 05:05:27;;;;;;;2.35;1.65;;;11.50;88.80;;;;;;5036283;28;20484;-87
2022/04/18 05:07:55;;;;;;;2.38;1.50;;;11.50;88.80;;;;;;5036356;28;20111;-88
2022/04/18 05:10:20;;;;;;;2.08;1.50;;;11.50;88.80;;;;;;5054602;28;20040;-87
2022/04/18 05:12:46;;;;;;;3.38;1.48;;;11.50;88.80;;;;;;5054449;28;20037;-87
2022/04/18 05:15:12;;;;;;;2.80;1.42;;;11.50;88.90;;;;;;5036781;28;20499;-87
2022/04/18 05:17:38;;;;;;;2.58;1.60;;;11.50;89.00;;;;;;5036262;28;20063;-87
2022/04/18 05:20:04;;;;;;;2.90;1.70;;;11.50;89.00;;;;;;5036223;28;20040;-88
2022/04/18 05:22:31;;;;;;;3.40;2.15;;;11.50;89.10;;;;;;5035961;28;20048;-88
2022/04/18 05:24:57;;;;;;;2.88;1.63;;;11.50;89.80;;;;;;5036345;28;20378;-88
2022/04/18 05:27:26;;;;;;;3.28;1.60;;;11.50;89.10;;;;;;5035740;28;20017;-88
2022/04/18 05:29:51;;;;;;;2.30;1.65;;;11.40;89.00;;;;;;5035951;28;20025;-88
2022/04/18 05:32:17;;;;;;;2.75;1.70;;;11.50;89.10;;;;;;5054183;28;20104;-88
2022/04/18 05:34:44;;;;;;;2.67;1.70;;;11.50;89.20;;;;;;5036110;28;20021;-88
2022/04/18 05:37:10;;;;;;;2.70;1.65;;;11.40;89.10;;;;;;5036304;28;20029;-88
2022/04/18 05:39:36;;;;;;;3.08;1.70;;;11.40;89.30;;;;;;5035921;28;20526;-88
2022/04/18 05:42:02;;;;;;;3.72;1.90;;;11.40;89.30;;;;;;5053308;28;20025;-88
2022/04/18 05:44:31;;;;;;;3.90;2.00;;;11.40;89.30;;;;;;5036142;28;20029;-88
2022/04/18 05:46:56;;;;;;;2.20;1.70;;;11.40;89.40;;;;;;5035706;28;20086;-88
2022/04/18 05:49:22;;;;;;;3.95;1.60;;;11.40;89.50;;;;;;5035803;28;20025;-88
2022/04/18 05:51:48;;;;;;;3.38;2.00;;;11.40;89.50;;;;;;5053608;28;20542;-88
2022/04/18 05:54:13;;;;;;;3.78;1.80;;;11.40;89.60;;;;;;5035801;28;20086;-88
2022/04/18 05:56:39;;;;;;;4.28;1.63;;;11.40;89.60;;;;;;5035737;28;20044;-88
2022/04/18 05:59:04;;;;;;;4.03;2.00;;;11.40;89.70;;;;;;5053750;28;20025;-88
2022/04/18 06:01:30;;;;;;;3.10;1.83;;;11.50;89.80;;;;;;5035327;28;20021;-89
2022/04/18 06:03:56;;;;;;;3.00;1.65;;;11.40;89.80;;;;;;5056373;28;20104;-88
2022/04/18 06:06:22;;;;;;;2.85;1.88;;;11.40;89.80;;;;;;5057544;28;20104;-88
2022/04/18 06:08:48;;;;;;;2.97;1.73;;;11.40;89.90;;;;;;5039304;28;20032;-88
2022/04/18 06:11:13;;;;;;;2.85;1.85;;;11.40;89.90;;;;;;5039408;28;20079;-89
2022/04/18 06:13:39;;;;;;;2.55;1.60;;;11.50;90.00;;;;;;5039242;28;20032;-88
2022/04/18 06:16:06;;;;;;;2.50;1.50;;;11.40;90.00;;;;;;5039115;28;20021;-88
2022/04/18 06:18:32;;;;;;;4.75;1.77;;;11.50;90.10;;;;;;5039261;28;20029;-88
2022/04/18 06:20:58;;;;;;;2.97;1.75;;;11.50;90.10;;;;;;5039015;28;20116;-88
2022/04/18 06:23:24;;;;;;;3.65;1.83;;;11.50;90.10;;;;;;5039031;28;20083;-88
2022/04/18 06:25:49;;;;;;;2.45;1.63;;;11.50;90.20;;;;;;5057392;28;20055;-88
2022/04/18 06:28:15;;;;;;;3.42;2.03;;;11.50;90.20;;;;;;5038870;28;20119;-89
2022/04/18 06:30:41;;;;;;;2.95;1.70;;;11.50;90.30;;;;;;5039213;28;20096;-88
2022/04/18 06:33:13;;;;;;;3.47;1.77;;;11.50;90.30;;;;;;5057196;28;20017;-88
2022/04/18 06:35:41;;;;;;;3.45;1.67;;;11.50;90.30;;;;;;5039169;28;20028;-89
2022/04/18 06:38:07;;;;;;;2.75;1.80;;;11.50;90.40;;;;;;5056797;28;20029;-89
2022/04/18 06:40:33;;;;;;;4.85;1.90;;;11.50;90.40;;;;;;5056432;28;20036;-89
2022/04/18 06:42:59;;;;;;;2.90;1.70;;;11.50;90.50;;;;;;5056695;28;20472;-88
2022/04/18 06:45:25;;;;;;;2.03;1.48;;;11.50;90.50;;;;;;5038789;28;20200;-89
2022/04/18 06:47:50;;;;;;;4.30;2.00;;;11.60;90.60;;;;;;5038353;28;20036;-89
2022/04/18 06:50:16;;;;;;;3.45;2.00;;;11.60;90.60;;;;;;5056403;28;20096;-88
2022/04/18 06:52:49;;;;;;;2.10;1.60;;;11.60;90.60;;;;;;5038808;28;20021;-89
2022/04/18 06:55:15;;;;;;;4.80;1.98;;;11.50;90.60;;;;;;5038864;28;20031;-89
2022/04/18 06:57:41;;;;;;;3.20;1.83;;;11.60;90.70;;;;;;5038606;28;20063;-89
2022/04/18 07:00:08;;;;;;;3.28;1.83;;;11.60;90.70;;;;;;5038842;28;20472;-89
2022/04/18 07:02:34;;;;;;;4.03;1.92;;;11.60;90.70;;;;;;5057163;28;20096;-89
2022/04/18 07:05:00;;;;;;;4.55;2.03;;;11.70;91.10;;;;;;5038588;28;20448;-88
2022/04/18 07:07:25;;;;;;;4.50;1.83;;;11.70;90.80;;;;;;5038524;28;20361;-88
2022/04/18 07:09:51;;;;;;;3.30;1.83;;;11.70;90.80;;;;;;5056370;28;20024;-88
2022/04/18 07:12:22;;;;;;;2.63;1.85;;;11.70;90.80;;;;;;5037974;28;20037;-88
2022/04/18 07:14:48;;;;;;;3.28;1.70;;;11.80;90.80;;;;;;5054856;28;20013;-88
2022/04/18 07:17:13;;;;;;;3.05;1.65;;;11.80;90.70;;;;;;5037855;28;20017;-88
2022/04/18 07:19:39;;;;;;;2.60;1.80;;;11.90;90.70;;;;;;5038745;28;20097;-88
2022/04/18 07:22:06;;;;;;;2.83;1.90;;;11.90;90.70;;;;;;5037731;28;20053;-88
2022/04/18 07:24:31;;;;;;;5.07;1.90;;;11.90;90.60;;;;;;5037739;28;20021;-88
2022/04/18 07:27:00;;;;;;;2.88;1.92;;;12.00;90.60;;;;;;5055650;28;20029;-87
2022/04/18 07:29:27;;;;;;;3.35;1.73;;;11.90;90.50;;;;;;5037694;28;20024;-88
2022/04/18 07:31:53;;;;;;;3.15;1.83;;;12.00;90.50;;;;;;5038207;28;20018;-88
2022/04/18 07:34:19;;;;;;;5.25;2.00;;;12.00;90.40;;;;;;5056874;28;20387;-88
2022/04/18 07:36:45;;;;;;;3.60;1.75;;;12.10;90.40;;;;;;5038169;28;20107;-88
2022/04/18 07:39:10;;;;;;;4.13;1.80;;;12.10;90.40;;;;;;5037949;28;20055;-88
2022/04/18 07:41:36;;;;;;;3.25;1.65;;;12.20;90.40;;;;;;5038097;28;20028;-88
2022/04/18 07:44:03;;;;;;;4.35;1.83;;;12.20;90.40;;;;;;5055863;28;20489;-88
2022/04/18 07:46:29;;;;;;;4.40;1.77;;;12.20;90.30;;;;;;5037932;28;20116;-88
2022/04/18 07:48:56;;;;;;;4.03;1.67;;;12.30;90.30;;;;;;5055012;28;20067;-88
2022/04/18 07:51:39;;;;;;;6.07;1.95;;;12.20;90.30;;;;;;5036956;28;20025;-88
2022/04/18 07:54:11;;;;;;;3.58;1.90;;;12.30;90.30;;;;;;5037527;28;20385;-89
2022/04/18 07:56:37;;;;;;;4.57;2.10;;;12.40;90.30;;;;;;5037321;28;20021;-88
2022/04/18 07:59:03;;;;;;;3.42;1.98;;;12.40;90.30;;;;;;5037381;28;20400;-87
2022/04/18 08:01:30;;;;;;;2.35;1.67;;;12.40;90.30;;;;;;5037288;28;20106;-88
2022/04/18 08:03:57;;;;;;;2.90;1.80;;;12.40;90.30;;;;;;5055255;28;20074;-88
2022/04/18 08:06:22;;;;;;;3.05;1.90;;;12.50;90.30;;;;;;5037666;28;20118;-88
2022/04/18 08:08:48;;;;;;;2.97;1.83;;;12.50;90.20;;;;;;5054920;28;20056;-88
2022/04/18 08:11:15;;;;;;;3.17;1.65;;;12.50;90.10;;;;;;5055090;28;20021;-88
2022/04/18 08:13:45;;;;;;;3.47;1.70;;;12.60;90.10;;;;;;5037306;28;20032;-88
2022/04/18 08:16:11;;;;;;;3.20;1.67;;;12.60;90.20;;;;;;5055021;28;20023;-88
2022/04/18 08:18:44;;;;;;;3.38;1.85;;;12.60;90.10;;;;;;5037078;28;20032;-88
2022/04/18 08:21:15;;;;;;;3.47;1.92;;;12.60;90.00;;;;;;5054603;28;20076;-87
2022/04/18 08:23:42;;;;;;;4.28;2.00;;;12.70;90.00;;;;;;5037004;28;20021;-87
2022/04/18 08:26:07;;;;;;;2.78;1.70;;;12.70;89.90;;;;;;5054514;28;20028;-89
2022/04/18 08:28:34;;;;;;;4.18;1.70;;;12.70;89.90;;;;;;5054262;28;20078;-88
2022/04/18 08:31:00;;;;;;;3.00;1.80;;;12.70;89.70;;;;;;5020178;28;20044;-88
2022/04/18 08:33:28;;;;;;;3.35;1.90;;;12.70;89.70;;;;;;5037267;28;20025;-89
2022/04/18 08:35:53;;;;;;;3.03;1.90;;;12.80;89.50;;;;;;5036484;28;20074;-88
2022/04/18 08:38:19;;;;;;;3.20;1.58;;;12.80;89.00;;;;;;5036462;28;20033;-88
2022/04/18 08:40:48;;;;;;;3.15;1.88;;;12.80;89.80;;;;;;5036548;28;20029;-88
2022/04/18 08:43:14;;;;;;;5.40;1.80;;;12.80;89.90;;;;;;5054116;28;20024;-88
2022/04/18 08:45:40;;;;;;;3.80;1.98;;;12.90;90.00;;;;;;5036069;28;20074;-89
2022/04/18 08:53:44;;;;;;;2.17;1.60;;;13.00;89.70;;;;;;5023416;28;20043;-88
2022/04/18 08:56:10;;;;;;;4.63;1.80;;;13.00;89.50;;;;;;5035913;28;20025;-88
2022/04/18 08:58:35;;;;;;;2.55;1.55;;;13.00;89.50;;;;;;5054304;28;20526;-89
2022/04/18 09:01:02;;;;;;;2.83;1.60;;;13.10;89.50;;;;;;5036514;28;20116;-89
2022/04/18 09:03:28;;;;;;;4.63;1.50;;;13.10;89.40;;;;;;5036310;28;20033;-88
2022/04/18 09:06:10;;;;;;;2.67;1.92;;;13.10;89.50;;;;;;5036004;28;20029;-89
2022/04/18 09:08:46;;;;;;;4.85;1.83;;;13.10;89.40;;;;;;5053980;28;20046;-88
2022/04/18 09:11:29;;;;;;;3.75;1.90;;;13.20;89.40;;;;;;5036147;28;20033;-87
2022/04/18 09:14:09;;;;;;;2.63;1.88;;;13.20;89.30;;;;;;5036325;28;20400;-88
2022/04/18 09:16:36;;;;;;;4.20;2.05;;;13.20;89.00;;;;;;5035888;28;20021;-88
2022/04/18 09:19:05;;;;;;;3.72;1.85;;;13.20;88.80;;;;;;5036122;28;20021;-87
2022/04/18 09:21:32;;;;;;;3.50;1.90;;;13.30;88.60;;;;;;5053538;28;20492;-89
2022/04/18 09:23:58;;;;;;;4.75;1.80;;;13.30;88.40;;;;;;5035962;28;20025;-89
2022/04/18 09:26:24;;;;;;;2.58;1.60;;;13.30;88.30;;;;;;5035900;28;20119;-87
2022/04/18 09:28:50;;;;;;;3.42;1.67;;;13.30;88.30;;;;;;5035848;28;20028;-89
2022/04/18 09:31:19;;;;;;;2.42;1.55;;;13.30;88.20;;;;;;5035828;28;20071;-89
2022/04/18 09:33:56;;;;;;;3.88;1.90;;;13.40;88.00;;;;;;5035610;28;20437;-88
2022/04/18 09:36:23;;;;;;;5.43;1.88;;;13.40;88.10;;;;;;5035796;28;20495;-89
2022/04/18 09:38:54;;;;;;;3.22;1.70;;;13.40;87.90;;;;;;5035156;28;20025;-87
2022/04/18 09:41:25;;;;;;;3.53;1.70;;;13.50;88.10;;;;;;5054065;28;20067;-88
2022/04/18 09:43:52;;;;;;;2.78;1.60;;;13.50;88.10;;;;;;5053658;28;20120;-89
2022/04/18 09:46:18;;;;;;;3.28;1.48;;;13.50;88.10;;;;;;5035733;28;20028;-89
2022/04/18 09:48:46;;;;;;;2.78;1.80;;;13.60;87.30;;;;;;5053826;28;20029;-89
2022/04/18 09:51:14;;;;;;;2.70;1.70;;;13.50;87.20;;;;;;5053495;28;20017;-88
2022/04/18 09:53:45;;;;;;;4.78;2.10;;;13.60;88.20;;;;;;5035567;28;20398;-89
2022/04/18 09:56:19;;;;;;;4.40;2.00;;;13.60;87.20;;;;;;5036025;28;20022;-89
2022/04/18 09:58:45;;;;;;;2.67;1.65;;;13.60;87.20;;;;;;5035867;28;20033;-89
2022/04/18 10:01:12;;;;;;;4.32;1.60;;;13.60;87.70;;;;;;5035638;28;20207;-89
2022/04/18 10:03:40;;;;;;;2.75;1.73;;;13.70;87.10;;;;;;5053634;28;20097;-89
2022/04/18 10:06:07;;;;;;;3.90;1.63;;;13.70;87.00;;;;;;5035578;28;20072;-88
2022/04/18 10:08:34;;;;;;;2.85;1.70;;;13.70;87.10;;;;;;5053399;28;20024;-89
2022/04/18 10:11:01;;;;;;;3.35;1.75;;;13.70;87.00;;;;;;5035695;28;20029;-88
2022/04/18 10:13:28;;;;;;;4.18;1.90;;;13.80;87.10;;;;;;5035688;28;20029;-89
2022/04/18 10:15:55;;;;;;;3.70;1.80;;;13.80;87.20;;;;;;5053692;28;20025;-89
2022/04/18 10:18:21;;;;;;;3.00;1.70;;;13.80;87.00;;;;;;5053615;28;20052;-89
2022/04/18 10:21:08;;;;;;;3.55;1.50;;;13.80;86.90;;;;;;5035669;28;20033;-88
2022/04/18 10:24:09;;;;;;;3.53;1.98;;;13.90;87.10;;;;;;5036181;28;20071;-89
2022/04/18 10:26:51;;;;;;;3.42;1.60;;;13.90;86.80;;;;;;5035874;28;20488;-89
2022/04/18 10:29:30;;;;;;;4.13;1.88;;;13.90;86.90;;;;;;5053895;28;20021;-89
2022/04/18 10:32:00;;;;;;;2.53;1.75;;;14.00;86.90;;;;;;5035931;28;20021;-89
2022/04/18 10:34:31;;;;;;;2.90;1.73;;;14.00;86.80;;;;;;5035683;28;20032;-89
2022/04/18 10:37:00;;;;;;;3.30;1.83;;;14.00;87.00;;;;;;5035531;28;20017;-89
2022/04/18 10:39:33;;;;;;;3.28;1.83;;;14.10;86.70;;;;;;5035578;28;20056;-89
2022/04/18 10:42:22;;;;;;;2.03;1.55;;;14.10;86.80;;;;;;5035767;28;20075;-89
2022/04/18 10:45:16;;;;;;;3.28;2.00;;;14.10;87.00;;;;;;5053675;28;20425;-89
2022/04/18 10:48:06;;;;;;;3.50;2.05;;;14.10;86.90;;;;;;5046276;28;20060;-89
2022/04/18 10:50:45;;;;;;;3.33;1.80;;;14.20;86.80;;;;;;5039399;28;20036;-89
2022/04/18 10:53:23;;;;;;;2.53;1.80;;;14.20;86.60;;;;;;5039147;28;20472;-89
2022/04/18 10:55:51;;;;;;;4.40;1.80;;;14.20;86.50;;;;;;5039559;28;20112;-89
2022/04/18 10:58:39;;;;;;;3.40;1.90;;;14.30;86.50;;;;;;5039508;28;20028;-89
2022/04/18 11:01:10;;;;;;;2.92;1.60;;;14.30;86.60;;;;;;5039739;28;20116;-90
2022/04/18 11:03:39;;;;;;;2.65;1.92;;;14.30;86.40;;;;;;5039461;28;20028;-89
2022/04/18 11:06:09;;;;;;;2.13;1.58;;;14.40;86.30;;;;;;5056899;28;20055;-89
2022/04/18 11:08:39;;;;;;;7.13;2.20;;;14.40;85.80;;;;;;5039257;28;20084;-89
2022/04/18 11:11:15;;;;;;;2.63;1.60;;;14.40;86.00;;;;;;5038424;28;20025;-89
2022/04/18 11:13:47;;;;;;;4.55;1.73;;;14.40;86.10;;;;;;5039115;28;20021;-89
2022/04/18 11:16:22;;;;;;;3.05;1.55;;;14.50;86.00;;;;;;5039016;28;20009;-89
2022/04/18 11:19:16;;;;;;;3.92;1.65;;;14.50;85.90;;;;;;5038926;28;20028;-89
2022/04/18 11:21:57;;;;;;;3.95;2.00;;;14.50;85.40;;;;;;5056443;28;20082;-89
2022/04/18 11:24:43;;;;;;;3.30;1.77;;;14.50;85.40;;;;;;5038948;28;20138;-89
2022/04/18 11:27:12;;;;;;;3.00;1.67;;;14.60;85.30;;;;;;5043022;28;20051;-89
2022/04/18 11:29:40;;;;;;;4.00;1.90;;;14.60;85.70;;;;;;5038307;28;20056;-88
2022/04/18 11:32:07;;;;;;;3.83;1.42;;;14.60;85.50;;;;;;5037527;28;20496;-89
2022/04/18 11:34:34;;;;;;;2.63;1.60;;;14.60;85.40;;;;;;5037750;28;20388;-89
2022/04/18 11:37:03;;;;;;;2.20;1.65;;;14.60;85.50;;;;;;5037132;28;20480;-86
2022/04/18 11:39:42;;;;;;;3.20;1.75;;;14.60;85.30;;;;;;5037313;28;20082;-89
2022/04/18 11:42:08;;;;;;;2.85;1.65;;;14.70;85.40;;;;;;5037674;28;20032;-90
2022/04/18 11:44:39;;;;;;;3.65;1.77;;;14.70;85.20;;;;;;5055964;28;20032;-90
2022/04/18 11:47:12;;;;;;;3.63;1.52;;;14.70;85.40;;;;;;5038339;28;20114;-90
2022/04/18 11:49:39;;;;;;;4.55;1.60;;;14.70;85.20;;;;;;5055239;28;20048;-89
2022/04/18 11:52:25;;;;;;;2.25;1.52;;;14.70;85.00;;;;;;5037792;28;20029;-91
2022/04/18 11:54:55;;;;;;;2.17;1.33;;;14.70;84.80;;;;;;5037989;28;20017;-90
2022/04/18 11:57:21;;;;;;;2.35;1.30;;;14.70;84.70;;;;;;5037923;28;20358;-90
2022/04/18 11:59:47;;;;;;;3.10;1.77;;;14.70;84.70;;;;;;5037671;28;20032;-89
2022/04/18 12:07:43;;;;;;;2.78;1.50;;;14.80;84.70;;;;;;5055810;28;20498;-90
2022/04/18 12:10:31;;;;;;;3.25;1.65;;;14.80;84.60;;;;;;5037890;28;20133;-89
2022/04/18 12:12:58;;;;;;;4.50;1.88;;;14.80;84.60;;;;;;5038043;28;20018;-90
2022/04/18 12:15:25;;;;;;;2.30;1.60;;;14.90;84.80;;;;;;5038022;28;20017;-89
2022/04/18 12:17:52;;;;;;;2.60;1.73;;;14.90;84.70;;;;;;5037829;28;20017;-90
2022/04/18 12:20:27;;;;;;;4.90;1.70;;;14.90;84.00;;;;;;5037598;28;20028;-89
2022/04/18 12:22:59;;;;;;;2.47;1.73;;;14.90;84.20;;;;;;5037495;28;20061;-90
2022/04/18 12:25:29;;;;;;;3.70;1.60;;;15.00;84.00;;;;;;5037264;28;20029;-90
2022/04/18 12:27:57;;;;;;;2.67;1.75;;;15.00;83.60;;;;;;5054658;28;20021;-89
2022/04/18 12:30:23;;;;;;;2.13;1.48;;;15.10;83.50;;;;;;5037533;28;20024;-90
2022/04/18 12:32:49;;;;;;;2.55;1.70;;;15.10;83.50;;;;;;5037400;28;20029;-90
2022/04/18 12:35:35;;;;;;;3.70;1.63;;;15.20;83.30;;;;;;5037224;28;20043;-90
2022/04/18 12:38:02;;;;;;;3.03;1.90;;;15.20;83.40;;;;;;5036940;28;20392;-90
2022/04/18 12:40:33;;;;;;;3.80;1.48;;;15.40;82.60;;;;;;5037120;28;20024;-90
2022/04/18 12:43:14;;;;;;;3.90;1.67;;;15.50;83.30;;;;;;5036961;28;20021;-90
2022/04/18 12:45:47;;;;;;;3.03;1.77;;;15.70;82.10;;;;;;5054551;28;20021;-90
2022/04/18 12:48:13;;;;;;;2.15;1.60;;;15.80;82.00;;;;;;5036944;28;20097;-90
2022/04/18 12:50:40;;;;;;;2.55;1.23;;;15.90;81.80;;;;;;5054223;28;20021;-90
2022/04/18 12:53:06;;;;;;;2.20;1.17;;;16.10;81.20;;;;;;5037047;28;20071;-90
2022/04/18 12:55:31;;;;;;;2.10;1.35;;;16.20;80.90;;;;;;5036397;28;20045;-90
2022/04/18 12:57:58;;;;;;;4.07;1.80;;;16.30;80.70;;;;;;5036623;28;20036;-90
2022/04/18 13:00:24;;;;;;;1.75;1.23;;;16.50;80.00;;;;;;5054163;28;20079;-90
2022/04/18 13:03:01;;;;;;;2.08;1.50;;;16.50;80.20;;;;;;5054409;28;20021;-91
2022/04/18 13:05:32;;;;;;;3.15;1.60;;;16.60;80.10;;;;;;5036486;28;20033;-89
2022/04/18 13:08:05;;;;;;;2.20;1.42;;;16.50;80.10;;;;;;5036359;28;20024;-90
2022/04/18 13:10:32;;;;;;;3.42;1.20;;;16.50;80.10;;;;;;5036366;28;20025;-90
2022/04/18 13:13:15;;;;;;;2.03;1.20;;;16.70;79.60;;;;;;5035369;28;20025;-90